Time;durP1;ratioP1;P1;durP2;ratioP2;P2;SDS_P1;SDS_P2;PMS_P1;PMS_P2;Temp;Humidity;BMP_temperature;BMP_pressure;BME280_temperature;BME280_humidity;BME280_pressure;Samples;Min_cycle;Max_cycle;Signal;HPM_P1;HPM_P2
2023/01/08 00:01:54;;;;;;;4.78;2.28;;;;;;;9.21;100.00;99363.94;5009942;28;20946;-66
2023/01/08 00:04:19;;;;;;;4.00;2.03;;;;;;;9.24;100.00;99368.97;5015856;28;20427;-66
2023/01/08 00:06:44;;;;;;;6.72;2.75;;;;;;;9.19;100.00;99368.41;5016148;28;20024;-66
2023/01/08 00:09:10;;;;;;;6.35;2.47;;;;;;;9.27;100.00;99378.44;5018978;28;20056;-66
2023/01/08 00:11:36;;;;;;;7.45;2.13;;;;;;;9.31;100.00;99381.72;5014395;28;20080;-65
2023/01/08 00:14:02;;;;;;;5.05;2.22;;;;;;;9.30;100.00;99361.66;5009249;28;20895;-66
2023/01/08 00:16:28;;;;;;;4.65;2.70;;;;;;;9.17;100.00;99346.69;5011137;28;20884;-65
2023/01/08 00:18:53;;;;;;;4.03;2.47;;;;;;;9.33;100.00;99369.38;5007902;28;20033;-66
2023/01/08 00:21:19;;;;;;;4.22;2.28;;;;;;;9.29;100.00;99360.84;4999056;28;20954;-66
2023/01/08 00:23:45;;;;;;;5.68;2.80;;;;;;;9.17;100.00;99341.47;5009605;28;20021;-66
2023/01/08 00:26:11;;;;;;;3.50;2.25;;;;;;;9.27;100.00;99361.84;5008417;28;20811;-66
2023/01/08 00:28:36;;;;;;;4.95;2.00;;;;;;;9.19;100.00;99350.06;5008220;28;20068;-66
2023/01/08 00:31:07;;;;;;;4.53;2.15;;;;;;;9.21;100.00;99353.44;5007484;28;20040;-65
2023/01/08 00:33:33;;;;;;;7.03;3.10;;;;;;;9.15;100.00;99350.38;4990437;28;20061;-66
2023/01/08 00:35:58;;;;;;;8.50;2.25;;;;;;;9.10;100.00;99348.00;4991366;28;20033;-66
2023/01/08 00:38:25;;;;;;;3.67;2.25;;;;;;;9.03;100.00;99346.69;5008272;28;20060;-66
2023/01/08 00:40:50;;;;;;;3.95;2.58;;;;;;;8.99;100.00;99339.94;5001907;28;20025;-66
2023/01/08 00:43:16;;;;;;;5.80;2.60;;;;;;;9.01;100.00;99330.25;5013323;28;20033;-66
2023/01/08 00:45:41;;;;;;;6.70;2.67;;;;;;;9.04;100.00;99329.19;5009293;28;20887;-66
2023/01/08 00:48:07;;;;;;;5.90;2.70;;;;;;;9.05;100.00;99333.50;5012128;28;20031;-66
2023/01/08 00:50:32;;;;;;;5.60;2.88;;;;;;;9.17;100.00;99336.22;5011953;28;20031;-66
2023/01/08 00:52:57;;;;;;;7.55;3.00;;;;;;;9.17;100.00;99330.97;5011434;28;20018;-66
2023/01/08 00:55:23;;;;;;;5.38;2.38;;;;;;;9.22;100.00;99331.56;5007231;28;20905;-66
2023/01/08 00:57:48;;;;;;;5.65;2.90;;;;;;;9.21;100.00;99321.16;5005061;28;20045;-66
2023/01/08 01:00:14;;;;;;;7.13;2.53;;;;;;;9.17;100.00;99310.00;5004533;28;20021;-66
2023/01/08 01:02:40;;;;;;;7.90;3.00;;;;;;;9.30;100.00;99324.97;5007271;28;20035;-66
2023/01/08 01:05:06;;;;;;;5.07;2.88;;;;;;;9.35;100.00;99323.75;5006430;28;20029;-66
2023/01/08 01:07:35;;;;;;;5.00;3.15;;;;;;;9.37;100.00;99332.34;4988839;28;20025;-66
2023/01/08 01:10:00;;;;;;;5.68;2.80;;;;;;;9.35;100.00;99338.66;5006418;28;20017;-66
2023/01/08 01:12:26;;;;;;;6.18;2.28;;;;;;;9.33;100.00;99346.59;4989320;28;20025;-66
2023/01/08 01:14:51;;;;;;;3.97;2.00;;;;;;;9.36;100.00;99348.19;5006481;28;20052;-66
2023/01/08 01:17:17;;;;;;;4.10;2.17;;;;;;;9.38;100.00;99346.31;5007325;28;20088;-66
2023/01/08 01:19:42;;;;;;;12.18;2.40;;;;;;;9.44;100.00;99349.41;4989897;28;20053;-65
2023/01/08 01:22:08;;;;;;;4.47;2.00;;;;;;;9.47;100.00;99341.34;5006427;28;20032;-65
2023/01/08 01:24:33;;;;;;;6.47;2.38;;;;;;;9.41;100.00;99325.16;5006726;28;20863;-66
2023/01/08 01:26:59;;;;;;;5.57;2.65;;;;;;;9.43;100.00;99336.41;5005908;28;20060;-66
2023/01/08 01:29:25;;;;;;;4.30;2.60;;;;;;;9.41;100.00;99327.78;5007438;28;20860;-66
2023/01/08 01:31:50;;;;;;;3.78;2.33;;;;;;;9.37;100.00;99315.78;5006547;28;20134;-66
2023/01/08 01:34:15;;;;;;;4.55;2.50;;;;;;;9.30;100.00;99299.59;5006808;28;20041;-66
2023/01/08 01:36:41;;;;;;;6.20;2.53;;;;;;;9.40;100.00;99319.06;5005239;28;20979;-66
2023/01/08 01:39:07;;;;;;;5.70;2.45;;;;;;;9.37;100.00;99313.16;5006369;28;20025;-66
2023/01/08 01:41:38;;;;;;;5.53;2.63;;;;;;;9.44;100.00;99319.72;4930903;28;1658865;-66
2023/01/08 01:44:31;;;;;;;6.57;2.30;;;;;;;9.41;100.00;99323.38;4998254;28;20074;-66
2023/01/08 01:46:57;;;;;;;5.32;2.30;;;;;;;9.38;100.00;99330.59;5011401;28;20087;-66
2023/01/08 01:49:22;;;;;;;5.00;2.03;;;;;;;9.31;100.00;99322.25;4992208;28;20123;-66
2023/01/08 01:51:54;;;;;;;7.35;2.00;;;;;;;9.35;100.00;99318.53;5006732;28;20025;-66
2023/01/08 01:54:19;;;;;;;4.75;2.20;;;;;;;9.37;100.00;99321.03;5005001;28;20076;-66
2023/01/08 01:56:45;;;;;;;7.55;2.40;;;;;;;9.40;100.00;99326.06;5005653;28;20025;-66
2023/01/08 01:59:11;;;;;;;3.70;2.20;;;;;;;9.41;100.00;99318.13;4998071;28;20024;-66
2023/01/08 02:01:37;;;;;;;3.17;2.00;;;;;;;9.26;100.00;99299.91;5000638;28;20148;-66
2023/01/08 02:04:03;;;;;;;3.90;2.17;;;;;;;9.34;100.00;99308.97;4989248;28;20017;-66
2023/01/08 02:06:40;;;;;;;7.80;2.08;;;;;;;9.41;100.00;99325.16;5005117;28;20919;-66
2023/01/08 02:09:19;;;;;;;4.70;2.45;;;;;;;9.35;100.00;99315.91;5018147;28;20032;-66
2023/01/08 02:12:15;;;;;;;3.60;2.20;;;;;;;9.37;100.00;99323.66;4977343;28;20037;-66
2023/01/08 02:14:48;;;;;;;3.30;1.70;;;;;;;9.37;100.00;99313.16;4988456;28;20048;-66
2023/01/08 02:17:23;;;;;;;3.72;1.80;;;;;;;9.37;100.00;99305.31;4979596;28;20032;-66
2023/01/08 02:19:52;;;;;;;8.55;2.50;;;;;;;9.38;100.00;99312.22;4989051;28;20835;-66
2023/01/08 02:22:42;;;;;;;4.35;2.13;;;;;;;9.37;100.00;99313.16;4987543;28;20024;-66
2023/01/08 02:25:13;;;;;;;7.35;2.83;;;;;;;9.40;100.00;99310.34;4992582;28;20143;-66
2023/01/08 02:27:43;;;;;;;4.68;2.22;;;;;;;9.38;100.00;99301.75;5004999;28;20114;-66
2023/01/08 02:30:09;;;;;;;6.80;2.22;;;;;;;9.41;100.00;99299.78;4978312;28;20118;-66
2023/01/08 02:32:39;;;;;;;3.40;2.03;;;;;;;9.37;100.00;99281.69;4983108;28;20028;-67
2023/01/08 02:35:07;;;;;;;4.03;1.50;;;;;;;9.48;100.00;99292.38;4986361;28;20029;-66
2023/01/08 02:37:33;;;;;;;4.22;1.70;;;;;;;9.43;100.00;99289.22;5005604;28;20025;-66
2023/01/08 02:40:10;;;;;;;3.35;1.77;;;;;;;9.39;100.00;99278.06;5007216;28;20152;-66
2023/01/08 02:42:59;;;;;;;4.95;2.33;;;;;;;9.34;100.00;99281.91;5011079;28;20095;-66
2023/01/08 02:45:36;;;;;;;3.63;1.73;;;;;;;9.28;100.00;99263.94;5024840;28;20028;-67
2023/01/08 02:48:32;;;;;;;5.15;1.80;;;;;;;9.27;100.00;99291.09;5019961;28;20029;-66
2023/01/08 02:51:01;;;;;;;5.97;1.98;;;;;;;9.04;100.00;99243.59;4994465;28;20033;-66
2023/01/08 02:53:30;;;;;;;4.47;1.80;;;;;;;9.22;100.00;99271.28;5021342;28;20954;-66
2023/01/08 02:56:00;;;;;;;5.50;1.60;;;;;;;9.18;100.00;99259.28;4986064;28;20067;-66
2023/01/08 02:58:27;;;;;;;4.70;1.67;;;;;;;9.29;100.00;99265.63;4991205;28;20035;-66
2023/01/08 03:00:53;;;;;;;2.83;1.70;;;;;;;9.18;100.00;99248.81;5006067;28;20140;-67
2023/01/08 03:03:24;;;;;;;2.95;1.58;;;;;;;9.28;100.00;99266.56;4989053;28;20039;-66
2023/01/08 03:05:54;;;;;;;4.40;2.10;;;;;;;9.16;100.00;99232.31;5016417;28;20036;-66
2023/01/08 03:08:20;;;;;;;2.28;1.42;;;;;;;8.97;100.00;99205.59;5015573;28;20031;-66
2023/01/08 03:10:50;;;;;;;4.13;1.83;;;;;;;9.18;100.00;99235.72;5013934;28;20827;-66
2023/01/08 03:13:21;;;;;;;4.15;1.48;;;;;;;9.28;100.00;99254.31;4983662;28;20017;-66
2023/01/08 03:15:51;;;;;;;5.05;1.80;;;;;;;9.22;100.00;99244.22;5008546;28;20147;-66
2023/01/08 03:18:20;;;;;;;6.90;1.60;;;;;;;9.18;100.00;99246.19;5006889;28;20033;-66
2023/01/08 03:20:46;;;;;;;4.03;1.70;;;;;;;9.14;100.00;99247.31;4985621;28;20095;-66
2023/01/08 03:23:12;;;;;;;3.78;1.95;;;;;;;9.19;100.00;99250.47;5002645;28;20017;-64
2023/01/08 03:25:41;;;;;;;3.80;1.77;;;;;;;8.95;100.00;99215.34;5004179;28;20060;-66
2023/01/08 03:28:11;;;;;;;7.22;1.23;;;;;;;9.24;100.00;99258.91;5004086;28;20056;-66
2023/01/08 03:30:39;;;;;;;4.60;1.80;;;;;;;9.23;100.00;99266.84;5017873;28;20021;-66
2023/01/08 03:33:06;;;;;;;6.45;1.60;;;;;;;9.20;100.00;99256.56;4982104;28;20029;-65
2023/01/08 03:35:32;;;;;;;2.90;1.10;;;;;;;9.13;100.00;99234.28;5014381;28;20043;-66
2023/01/08 03:38:07;;;;;;;4.85;1.50;;;;;;;9.23;100.00;99254.59;5005236;28;21289;-66
2023/01/08 03:40:37;;;;;;;5.18;1.73;;;;;;;9.20;100.00;99236.44;5014144;28;20018;-65
2023/01/08 03:43:03;;;;;;;2.72;1.30;;;;;;;9.03;100.00;99226.16;5005859;28;20037;-66
2023/01/08 03:45:29;;;;;;;3.83;1.52;;;;;;;9.13;100.00;99253.47;5005093;28;20353;-66
2023/01/08 03:47:56;;;;;;;2.13;1.02;;;;;;;9.09;100.00;99253.78;5013455;28;20034;-65
2023/01/08 03:50:25;;;;;;;2.30;1.05;;;;;;;9.11;100.00;99260.59;5014115;28;20033;-65
2023/01/08 03:52:51;;;;;;;5.00;1.48;;;;;;;9.13;100.00;99250.88;4982789;28;20137;-66
2023/01/08 03:55:16;;;;;;;3.88;1.23;;;;;;;9.05;100.00;99242.66;5007138;28;20918;-66
2023/01/08 03:57:41;;;;;;;2.25;1.05;;;;;;;9.01;100.00;99243.78;5003446;28;20096;-66
2023/01/08 04:00:07;;;;;;;6.05;1.45;;;;;;;8.87;100.00;99209.72;5003879;28;20056;-66
2023/01/08 04:02:33;;;;;;;2.30;1.23;;;;;;;9.17;100.00;99247.13;5003791;28;20108;-66
2023/01/08 04:04:58;;;;;;;2.50;1.13;;;;;;;9.14;100.00;99247.31;5005890;28;20298;-66
2023/01/08 04:07:24;;;;;;;2.80;1.10;;;;;;;9.17;100.00;99230.53;5003983;28;20032;-66
2023/01/08 04:09:49;;;;;;;2.05;0.90;;;;;;;9.23;100.00;99244.09;5004679;28;20881;-66
2023/01/08 04:12:15;;;;;;;3.05;1.33;;;;;;;9.28;100.00;99235.13;4991000;28;20048;-66
2023/01/08 04:14:40;;;;;;;3.20;1.38;;;;;;;9.36;100.00;99243.34;5003573;28;20795;-66
2023/01/08 04:17:05;;;;;;;2.38;1.30;;;;;;;9.36;100.00;99248.59;5018003;28;20017;-66
2023/01/08 04:19:31;;;;;;;3.15;1.40;;;;;;;9.28;100.00;99253.47;5004562;28;20854;-66
2023/01/08 04:21:56;;;;;;;3.88;1.83;;;;;;;9.10;100.00;99245.81;4994614;28;20021;-66
2023/01/08 04:24:21;;;;;;;3.92;1.40;;;;;;;8.70;100.00;99209.94;4976109;28;20083;-67
2023/01/08 04:26:47;;;;;;;3.95;1.80;;;;;;;8.83;100.00;99246.69;5003338;28;20266;-67
2023/01/08 04:29:13;;;;;;;4.53;1.83;;;;;;;8.65;100.00;99243.44;5002781;28;20025;-67
2023/01/08 04:31:38;;;;;;;3.47;1.65;;;;;;;8.64;100.00;99268.78;5004051;28;20057;-67
2023/01/08 04:34:04;;;;;;;2.85;1.60;;;;;;;8.57;100.00;99259.59;4984607;28;20136;-67
2023/01/08 04:36:29;;;;;;;3.30;1.20;;;;;;;8.49;100.00;99247.88;4987832;28;20075;-67
2023/01/08 04:38:55;;;;;;;2.80;1.13;;;;;;;8.23;100.00;99224.09;5007632;28;20859;-67
2023/01/08 04:41:20;;;;;;;4.63;2.20;;;;;;;8.34;100.00;99248.81;4999747;28;20029;-67
2023/01/08 04:43:46;;;;;;;3.67;1.52;;;;;;;8.18;100.00;99239.22;5004398;28;20083;-67
2023/01/08 04:46:11;;;;;;;4.22;2.10;;;;;;;8.15;100.00;99244.63;5006425;28;20026;-67
2023/01/08 04:48:36;;;;;;;3.22;1.30;;;;;;;8.05;100.00;99235.63;5007778;28;20032;-66
2023/01/08 04:51:03;;;;;;;2.85;1.15;;;;;;;7.83;100.00;99198.59;5006902;28;20204;-66
2023/01/08 04:53:29;;;;;;;2.72;1.23;;;;;;;7.99;100.00;99238.63;5006906;28;20029;-66
2023/01/08 04:55:55;;;;;;;5.32;1.50;;;;;;;7.95;100.00;99238.88;4994628;28;20029;-66
2023/01/08 04:58:21;;;;;;;4.95;1.65;;;;;;;7.87;100.00;99235.88;4982124;28;20140;-67
2023/01/08 05:00:46;;;;;;;3.70;1.58;;;;;;;7.95;100.00;99254.56;4999058;28;20080;-66
2023/01/08 05:03:11;;;;;;;4.40;1.45;;;;;;;7.82;100.00;99238.75;5007919;28;20029;-67
2023/01/08 05:05:37;;;;;;;4.25;1.42;;;;;;;7.83;100.00;99263.97;4988938;28;20935;-67
2023/01/08 05:08:03;;;;;;;3.33;1.17;;;;;;;7.60;100.00;99243.53;5007799;28;20914;-67
2023/01/08 05:10:28;;;;;;;11.07;2.20;;;;;;;7.59;100.00;99249.69;4988212;28;20127;-67
2023/01/08 05:13:00;;;;;;;4.40;1.13;;;;;;;7.60;100.00;99269.66;5006766;28;20028;-67
2023/01/08 05:15:26;;;;;;;3.28;1.38;;;;;;;7.54;100.00;99288.28;5006620;28;20173;-67
2023/01/08 05:18:00;;;;;;;5.55;1.42;;;;;;;7.37;100.00;99285.78;4988392;28;20473;-66
2023/01/08 05:20:25;;;;;;;5.60;1.65;;;;;;;7.38;100.00;99301.38;4994735;28;20136;-66
2023/01/08 05:22:51;;;;;;;5.13;1.60;;;;;;;7.28;100.00;99286.28;5007118;28;20017;-66
2023/01/08 05:25:16;;;;;;;9.63;2.03;;;;;;;7.18;100.00;99276.34;5006860;28;20040;-67
2023/01/08 05:27:42;;;;;;;5.85;1.90;;;;;;;7.03;100.00;99256.25;5006516;28;20087;-66
2023/01/08 05:30:07;;;;;;;6.10;1.67;;;;;;;7.04;100.00;99252.72;5005379;28;20135;-67
2023/01/08 05:32:33;;;;;;;5.97;1.15;;;;;;;6.88;100.00;99215.31;5000682;28;20866;-68
2023/01/08 05:34:58;;;;;;;3.75;1.42;;;;;;;6.76;100.00;99210.75;4984631;28;20028;-68
2023/01/08 05:37:24;;;;;;;10.57;1.67;;;;;;;6.71;100.00;99220.59;5000895;28;21567;-68
2023/01/08 05:39:49;;;;;;;5.22;1.50;;;;;;;6.73;100.00;99234.41;5005379;28;20021;-68
2023/01/08 05:42:14;;;;;;;4.55;1.20;;;;;;;6.52;100.00;99218.09;5003018;28;20924;-68
2023/01/08 05:44:40;;;;;;;4.53;1.50;;;;;;;6.60;100.00;99235.97;5000794;28;20036;-67
2023/01/08 05:47:05;;;;;;;6.28;1.73;;;;;;;6.53;100.00;99230.25;5005624;28;20896;-67
2023/01/08 05:49:31;;;;;;;4.10;1.30;;;;;;;6.50;100.00;99229.56;5005402;28;20128;-67
2023/01/08 05:51:56;;;;;;;4.13;1.40;;;;;;;6.47;100.00;99238.41;5005531;28;20020;-67
2023/01/08 05:54:21;;;;;;;5.35;1.48;;;;;;;6.43;100.00;99230.78;5005590;28;20096;-67
2023/01/08 05:56:47;;;;;;;4.00;1.58;;;;;;;6.48;100.00;99226.19;5005657;28;20037;-67
2023/01/08 05:59:13;;;;;;;6.80;1.20;;;;;;;6.43;100.00;99233.41;5006801;28;20021;-67
2023/01/08 06:01:39;;;;;;;3.47;1.23;;;;;;;6.23;100.00;99199.69;5005346;28;20025;-67
2023/01/08 06:04:04;;;;;;;3.80;1.20;;;;;;;6.44;100.00;99235.09;5007564;28;20036;-68
2023/01/08 06:06:30;;;;;;;4.10;1.27;;;;;;;6.35;100.00;99223.38;4986350;28;20021;-68
2023/01/08 06:08:55;;;;;;;2.20;0.90;;;;;;;6.41;100.00;99235.25;5004699;28;20029;-68
2023/01/08 06:11:20;;;;;;;7.50;1.88;;;;;;;6.39;100.00;99232.72;5005462;28;20028;-68
2023/01/08 06:13:46;;;;;;;3.88;1.20;;;;;;;6.27;100.00;99222.09;5004574;28;20222;-68
2023/01/08 06:16:12;;;;;;;6.38;1.52;;;;;;;6.28;100.00;99229.00;4987653;28;20238;-68
2023/01/08 06:18:38;;;;;;;2.95;1.00;;;;;;;5.94;100.00;99183.78;5006089;28;20021;-68
2023/01/08 06:21:04;;;;;;;3.72;1.27;;;;;;;6.18;100.00;99229.44;4986932;28;20036;-68
2023/01/08 06:23:30;;;;;;;5.13;1.33;;;;;;;6.06;100.00;99219.66;4987845;28;20040;-68
2023/01/08 06:25:57;;;;;;;2.65;1.10;;;;;;;6.19;100.00;99253.75;5005685;28;20024;-68
2023/01/08 06:28:22;;;;;;;7.68;1.77;;;;;;;6.18;100.00;99245.09;4970894;28;20044;-68
2023/01/08 06:30:48;;;;;;;3.97;1.63;;;;;;;6.17;100.00;99253.00;5005796;28;20051;-68
2023/01/08 06:33:13;;;;;;;4.00;1.50;;;;;;;5.84;100.00;99203.38;5002812;28;20979;-68
2023/01/08 06:35:39;;;;;;;3.15;1.08;;;;;;;6.08;100.00;99246.47;4990427;28;20939;-67
2023/01/08 06:38:04;;;;;;;7.03;1.63;;;;;;;6.06;100.00;99245.72;5007476;28;20968;-68
2023/01/08 06:40:30;;;;;;;7.30;1.50;;;;;;;5.96;100.00;99234.06;5012715;28;20111;-67
2023/01/08 06:42:55;;;;;;;6.43;2.00;;;;;;;5.97;100.00;99229.72;4996649;28;20091;-67
2023/01/08 06:45:20;;;;;;;3.70;1.40;;;;;;;5.89;100.00;99224.88;4995197;28;20071;-67
2023/01/08 06:47:46;;;;;;;5.78;1.88;;;;;;;5.99;100.00;99243.50;4985656;28;20032;-67
2023/01/08 06:50:11;;;;;;;5.75;1.55;;;;;;;5.95;100.00;99248.03;4988414;28;20171;-67
2023/01/08 06:52:37;;;;;;;8.80;2.08;;;;;;;5.83;100.00;99245.16;5005356;28;20032;-68
2023/01/08 06:55:04;;;;;;;12.10;2.13;;;;;;;5.87;100.00;99255.41;5006352;28;20625;-68
2023/01/08 06:57:30;;;;;;;6.80;1.98;;;;;;;5.81;100.00;99250.47;5003545;28;20035;-67
2023/01/08 06:59:55;;;;;;;5.75;1.73;;;;;;;5.80;100.00;99251.38;5004753;28;20227;-67
2023/01/08 07:02:21;;;;;;;3.65;1.52;;;;;;;5.73;100.00;99247.38;5005387;28;20242;-67
2023/01/08 07:04:46;;;;;;;6.82;2.00;;;;;;;5.59;100.00;99228.97;5005904;28;20036;-68
2023/01/08 07:07:15;;;;;;;6.82;1.67;;;;;;;5.60;100.00;99230.66;5006318;28;20028;-68
2023/01/08 07:09:41;;;;;;;11.57;2.60;;;;;;;5.63;100.00;99243.53;5005515;28;20025;-68
2023/01/08 07:12:11;;;;;;;8.00;1.83;;;;;;;5.61;100.00;99248.00;4987300;28;20021;-68
2023/01/08 07:14:36;;;;;;;7.78;1.92;;;;;;;5.45;100.00;99231.38;4986136;28;20025;-68
2023/01/08 07:17:02;;;;;;;6.40;1.60;;;;;;;5.50;100.00;99238.06;5005134;28;20036;-68
2023/01/08 07:19:27;;;;;;;9.75;2.05;;;;;;;5.47;100.00;99235.63;5003742;28;20900;-67
2023/01/08 07:21:52;;;;;;;4.28;1.63;;;;;;;5.44;100.00;99240.13;5005340;28;20029;-67
2023/01/08 07:24:18;;;;;;;7.90;1.80;;;;;;;5.44;100.00;99242.75;5004382;28;20190;-68
2023/01/08 07:26:43;;;;;;;8.13;1.75;;;;;;;5.39;100.00;99247.31;5004497;28;20032;-68
2023/01/08 07:29:09;;;;;;;15.48;2.53;;;;;;;5.29;100.00;99252.13;5005476;28;20079;-67
2023/01/08 07:31:34;;;;;;;6.03;1.63;;;;;;;5.32;100.00;99251.97;5005308;28;20071;-68
2023/01/08 07:34:00;;;;;;;4.93;1.90;;;;;;;5.33;100.00;99258.88;5005275;28;20171;-68
2023/01/08 07:36:25;;;;;;;6.88;2.10;;;;;;;5.29;100.00;99261.69;5006758;28;20013;-67
2023/01/08 07:38:50;;;;;;;7.50;2.25;;;;;;;5.22;100.00;99253.31;5009414;28;20017;-67
2023/01/08 07:41:16;;;;;;;5.72;1.95;;;;;;;5.26;100.00;99251.41;4990898;28;20048;-67
2023/01/08 07:43:42;;;;;;;9.85;2.65;;;;;;;5.27;100.00;99261.78;4994452;28;20986;-67
2023/01/08 07:46:08;;;;;;;6.10;1.98;;;;;;;5.30;100.00;99268.59;5005260;28;20064;-68
2023/01/08 07:48:33;;;;;;;5.38;1.95;;;;;;;5.22;100.00;99237.69;5006271;28;20854;-67
2023/01/08 07:51:01;;;;;;;7.70;1.70;;;;;;;5.31;100.00;99245.06;5004847;28;20772;-67
2023/01/08 07:53:26;;;;;;;10.50;2.40;;;;;;;5.36;100.00;99242.25;5005583;28;20013;-68
2023/01/08 07:55:52;;;;;;;8.52;2.80;;;;;;;5.36;100.00;99235.28;5003633;28;20921;-66
2023/01/08 07:58:17;;;;;;;13.30;2.83;;;;;;;5.40;100.00;99241.19;4987790;28;20115;-68
2023/01/08 08:00:43;;;;;;;6.65;1.83;;;;;;;5.41;100.00;99229.84;5000570;28;20029;-68
2023/01/08 08:03:12;;;;;;;6.60;2.67;;;;;;;5.29;100.00;99205.25;5004894;28;20025;-68
2023/01/08 08:05:38;;;;;;;8.05;2.03;;;;;;;5.25;100.00;99188.06;5020796;28;20091;-67
2023/01/08 08:08:08;;;;;;;7.85;2.50;;;;;;;5.45;100.00;99211.41;5006319;28;20135;-67
2023/01/08 08:10:33;;;;;;;3.80;1.73;;;;;;;5.47;100.00;99200.91;4988100;28;20048;-68
2023/01/08 08:12:59;;;;;;;11.30;3.55;;;;;;;5.44;100.00;99188.84;5008363;28;20039;-68
2023/01/08 08:15:24;;;;;;;10.68;3.25;;;;;;;5.65;100.00;99213.03;4991121;28;20033;-67
2023/01/08 08:17:50;;;;;;;8.70;2.50;;;;;;;5.66;100.00;99199.09;5008723;28;20079;-68
2023/01/08 08:20:15;;;;;;;12.52;3.00;;;;;;;5.76;100.00;99215.94;5024613;28;20069;-68
2023/01/08 08:22:41;;;;;;;11.40;2.90;;;;;;;5.76;100.00;99200.31;5005735;28;20021;-68
2023/01/08 08:25:06;;;;;;;7.57;2.53;;;;;;;5.64;100.00;99169.66;5011527;28;20942;-68
2023/01/08 08:27:32;;;;;;;11.18;2.20;;;;;;;5.91;100.00;99204.81;5008874;28;20087;-68
2023/01/08 08:29:57;;;;;;;11.00;3.13;;;;;;;5.88;100.00;99189.28;5008427;28;20115;-68
2023/01/08 08:32:23;;;;;;;6.40;2.40;;;;;;;6.07;100.00;99210.91;5011421;28;20032;-68
2023/01/08 08:34:49;;;;;;;10.05;2.85;;;;;;;6.13;100.00;99199.31;5024858;28;20025;-68
2023/01/08 08:37:15;;;;;;;8.00;2.05;;;;;;;6.21;100.00;99205.00;5010391;28;20942;-68
2023/01/08 08:39:40;;;;;;;10.27;2.45;;;;;;;6.36;100.00;99203.34;5008136;28;20040;-68
2023/01/08 08:42:06;;;;;;;8.95;2.88;;;;;;;6.42;100.00;99184.78;5000345;28;20251;-68
2023/01/08 08:44:31;;;;;;;5.88;2.47;;;;;;;6.57;100.00;99194.38;5008851;28;20881;-68
2023/01/08 08:46:57;;;;;;;5.22;2.28;;;;;;;6.68;100.00;99187.69;5011125;28;20025;-68
2023/01/08 08:49:22;;;;;;;8.27;3.17;;;;;;;6.75;100.00;99192.56;5010667;28;20135;-68
2023/01/08 08:51:47;;;;;;;6.10;2.20;;;;;;;6.79;100.00;99181.88;5010086;28;20059;-68
2023/01/08 08:54:13;;;;;;;6.45;2.15;;;;;;;6.84;100.00;99171.19;5002170;28;20092;-68
2023/01/08 08:56:38;;;;;;;8.70;2.97;;;;;;;6.92;100.00;99174.22;4992245;28;20041;-68
2023/01/08 08:59:04;;;;;;;6.53;2.17;;;;;;;6.96;100.00;99179.16;4985364;28;20028;-68
2023/01/08 09:01:29;;;;;;;5.85;2.45;;;;;;;6.95;100.00;99164.44;4995816;28;20057;-68
2023/01/08 09:03:55;;;;;;;7.07;2.45;;;;;;;7.15;100.00;99187.69;5009735;28;20021;-68
2023/01/08 09:06:20;;;;;;;6.75;2.00;;;;;;;7.15;100.00;99164.19;4990894;28;20862;-68
2023/01/08 09:08:46;;;;;;;7.15;2.80;;;;;;;7.30;100.00;99179.94;5009302;28;20918;-68
2023/01/08 09:11:11;;;;;;;10.52;2.58;;;;;;;7.34;100.00;99166.59;5001194;28;20049;-68
2023/01/08 09:13:37;;;;;;;7.90;2.28;;;;;;;7.35;100.00;99156.97;5005745;28;20056;-67
2023/01/08 09:16:02;;;;;;;5.20;1.70;;;;;;;7.36;100.00;99150.84;5022596;28;20023;-68
2023/01/08 09:18:28;;;;;;;8.25;2.30;;;;;;;7.58;100.00;99170.41;5005941;28;20040;-68
2023/01/08 09:20:53;;;;;;;8.38;2.10;;;;;;;7.64;100.00;99174.44;5018124;28;20905;-68
2023/01/08 09:23:19;;;;;;;3.58;1.52;;;;;;;7.58;100.00;99164.34;4989223;28;20029;-68
2023/01/08 09:25:44;;;;;;;6.20;1.83;;;;;;;7.64;100.00;99158.75;4973337;28;20732;-68
2023/01/08 09:28:11;;;;;;;7.05;2.35;;;;;;;7.70;100.00;99177.53;5008566;28;20833;-68
2023/01/08 09:30:37;;;;;;;5.43;1.30;;;;;;;7.75;100.00;99177.28;5008414;28;20416;-68
2023/01/08 09:33:04;;;;;;;7.43;1.75;;;;;;;7.78;100.00;99166.63;5008760;28;20025;-67
2023/01/08 09:35:33;;;;;;;3.90;1.60;;;;;;;7.38;100.00;99094.09;5007946;28;20099;-67
2023/01/08 09:37:58;;;;;;;5.82;2.10;;;;;;;7.92;100.00;99158.81;4981209;28;20095;-67
2023/01/08 09:40:32;;;;;;;7.45;1.88;;;;;;;8.03;100.00;99166.03;5008391;28;20744;-67
2023/01/08 09:43:00;;;;;;;8.23;2.15;;;;;;;8.10;100.00;99172.59;4990514;28;20025;-68
2023/01/08 09:45:36;;;;;;;8.13;2.03;;;;;;;8.17;100.00;99172.13;5009598;28;20024;-68
2023/01/08 09:48:05;;;;;;;6.38;1.85;;;;;;;8.15;100.00;99155.69;4990009;28;20037;-68
2023/01/08 09:50:32;;;;;;;10.45;1.70;;;;;;;8.17;100.00;99164.28;4989264;28;20024;-67
2023/01/08 09:52:58;;;;;;;6.60;1.83;;;;;;;8.10;100.00;99144.66;4990054;28;20184;-67
2023/01/08 09:55:24;;;;;;;7.55;1.80;;;;;;;8.12;100.00;99148.00;4996652;28;20041;-66
2023/01/08 09:57:50;;;;;;;4.43;1.95;;;;;;;8.08;100.00;99138.66;5005746;28;20047;-66
2023/01/08 10:00:24;;;;;;;4.82;1.88;;;;;;;7.98;100.00;99140.16;4989683;28;20075;-66
2023/01/08 10:02:50;;;;;;;5.57;2.38;;;;;;;8.03;100.00;99151.19;4977860;28;20029;-67
2023/01/08 10:05:17;;;;;;;6.68;2.50;;;;;;;8.02;100.00;99146.88;5006497;28;20025;-67
2023/01/08 10:07:43;;;;;;;7.75;1.90;;;;;;;7.97;100.00;99151.56;5010205;28;20025;-66
2023/01/08 10:10:22;;;;;;;5.55;2.42;;;;;;;7.92;100.00;99148.38;5007297;28;20021;-66
2023/01/08 10:12:48;;;;;;;7.03;2.20;;;;;;;7.94;100.00;99129.97;5002065;28;20021;-67
2023/01/08 10:15:16;;;;;;;7.38;2.38;;;;;;;7.88;100.00;99125.09;5021923;28;20088;-67
2023/01/08 10:17:46;;;;;;;5.03;2.00;;;;;;;7.86;100.00;99122.59;5011831;28;20135;-66
2023/01/08 10:20:12;;;;;;;3.75;1.77;;;;;;;7.87;100.00;99112.97;5007407;28;20908;-67
2023/01/08 10:22:38;;;;;;;6.18;2.08;;;;;;;7.89;100.00;99126.78;5008559;28;20029;-67
2023/01/08 10:25:07;;;;;;;8.15;1.92;;;;;;;7.87;100.00;99112.97;5007079;28;20908;-67
2023/01/08 10:27:44;;;;;;;8.18;2.03;;;;;;;7.59;100.00;99095.47;5005245;28;20036;-67
2023/01/08 10:30:14;;;;;;;4.18;1.85;;;;;;;7.70;100.00;99095.69;5007471;28;20059;-67
2023/01/08 10:32:47;;;;;;;9.20;2.85;;;;;;;7.69;100.00;99099.22;5007248;28;20033;-64
2023/01/08 10:35:16;;;;;;;6.57;2.40;;;;;;;7.79;100.00;99131.72;5006021;28;20092;-67
2023/01/08 10:37:42;;;;;;;3.83;2.00;;;;;;;7.72;100.00;99120.78;4986722;28;20032;-66
2023/01/08 10:40:22;;;;;;;5.32;2.40;;;;;;;7.92;100.00;99116.13;4989599;28;20033;-66
2023/01/08 10:42:49;;;;;;;10.93;2.47;;;;;;;8.15;100.00;99105.97;5007034;28;20136;-70
2023/01/08 10:45:19;;;;;;;4.43;1.63;;;;;;;8.51;100.00;99109.91;4988068;28;20040;-65
2023/01/08 10:47:47;;;;;;;4.63;1.73;;;;;;;8.68;100.00;99107.06;4982120;28;20132;-65
2023/01/08 10:50:21;;;;;;;4.82;1.77;;;;;;;8.65;100.00;99081.09;4980768;28;20087;-69
2023/01/08 10:53:23;;;;;;;7.45;1.77;;;;;;;8.80;100.00;99094.97;5016270;28;20060;-67
2023/01/08 10:55:59;;;;;;;8.05;1.25;;;;;;;8.81;100.00;99102.75;4972807;28;20052;-65
2023/01/08 10:58:27;;;;;;;5.32;1.55;;;;;;;8.68;100.00;99076.50;4989990;28;20033;-72
2023/01/08 11:00:53;;;;;;;3.13;0.95;;;;;;;8.83;100.00;99095.63;5006133;28;20021;-68
2023/01/08 11:03:30;;;;;;;4.20;1.42;;;;;;;8.78;100.00;99087.22;4988459;28;20128;-67
2023/01/08 11:05:55;;;;;;;3.05;1.20;;;;;;;8.79;100.00;99086.28;4997230;28;20024;-70
2023/01/08 11:08:21;;;;;;;2.80;0.82;;;;;;;8.78;100.00;99084.59;4980602;28;20029;-68
2023/01/08 11:10:57;;;;;;;2.80;1.20;;;;;;;8.73;100.00;99078.81;5006359;28;20060;-67
2023/01/08 11:13:23;;;;;;;2.85;0.98;;;;;;;8.64;100.00;99061.91;5001894;28;20029;-66
2023/01/08 11:16:05;;;;;;;2.88;1.00;;;;;;;8.57;100.00;99062.41;4987673;28;20159;-65
2023/01/08 11:18:45;;;;;;;3.42;0.80;;;;;;;8.65;100.00;99060.97;4972821;28;20033;-66
2023/01/08 11:21:23;;;;;;;1.85;0.55;;;;;;;8.47;100.00;99046.44;5006919;28;20025;-66
2023/01/08 11:24:10;;;;;;;2.17;0.73;;;;;;;8.54;100.00;99054.75;5005014;28;20029;-66
2023/01/08 11:26:36;;;;;;;3.50;1.10;;;;;;;8.66;100.00;99073.13;4984397;28;20835;-67
2023/01/08 11:29:05;;;;;;;1.88;0.70;;;;;;;8.67;100.00;99069.56;5004880;28;20106;-64
2023/01/08 11:31:39;;;;;;;2.75;0.80;;;;;;;8.67;100.00;99055.63;5003978;28;20021;-65
2023/01/08 11:34:15;;;;;;;2.73;0.97;;;;;;;8.77;100.00;99054.13;5005540;28;20255;-64